Time;durP1;ratioP1;P1;durP2;ratioP2;P2;SDS_P1;SDS_P2;PMS_P1;PMS_P2;Temp;Humidity;BMP_temperature;BMP_pressure;BME280_temperature;BME280_humidity;BME280_pressure;Samples;Min_cycle;Max_cycle;Signal;HPM_P1;HPM_P2
2021/04/26 00:02:03;;;;;;;7.90;7.30;;;19.30;32.40;;;;;;5034596;28;20708;-71
2021/04/26 00:04:29;;;;;;;7.43;6.90;;;19.20;32.30;;;;;;5034968;28;20173;-72
2021/04/26 00:06:54;;;;;;;7.87;7.27;;;19.20;32.30;;;;;;5034501;28;20196;-72
2021/04/26 00:09:20;;;;;;;8.07;7.50;;;19.20;32.20;;;;;;5034352;28;20204;-72
2021/04/26 00:11:46;;;;;;;8.20;7.63;;;19.20;32.30;;;;;;5034376;28;20168;-72
2021/04/26 00:14:11;;;;;;;8.60;7.93;;;19.20;32.30;;;;;;5034473;28;20184;-73
2021/04/26 00:16:37;;;;;;;7.50;7.00;;;19.20;32.30;;;;;;5034057;28;20183;-72
2021/04/26 00:19:04;;;;;;;7.77;7.27;;;19.20;32.30;;;;;;5034435;28;20555;-72
2021/04/26 00:21:30;;;;;;;7.10;6.70;;;19.20;32.40;;;;;;5033282;28;20176;-72
2021/04/26 00:23:56;;;;;;;8.40;7.70;;;19.20;32.20;;;;;;5034101;28;20415;-72
2021/04/26 00:26:21;;;;;;;8.27;7.77;;;19.20;32.30;;;;;;5034147;28;20652;-72
2021/04/26 00:28:47;;;;;;;7.50;7.00;;;19.20;32.30;;;;;;5034139;28;20208;-72
2021/04/26 00:31:12;;;;;;;8.00;7.40;;;19.20;32.30;;;;;;5033954;28;20203;-71
2021/04/26 00:33:38;;;;;;;7.00;6.60;;;19.20;32.30;;;;;;5034265;28;20161;-72
2021/04/26 00:36:04;;;;;;;7.40;6.90;;;19.20;32.30;;;;;;5033886;28;20180;-72
2021/04/26 00:38:29;;;;;;;7.67;7.03;;;19.10;32.20;;;;;;5033809;28;20220;-72
2021/04/26 00:40:55;;;;;;;8.20;7.63;;;19.10;32.20;;;;;;5034049;28;20180;-73
2021/04/26 00:43:20;;;;;;;7.40;7.00;;;19.20;32.30;;;;;;5034203;28;20230;-71
2021/04/26 00:45:46;;;;;;;7.57;7.07;;;19.10;32.60;;;;;;5033607;28;20181;-72
2021/04/26 00:48:12;;;;;;;10.50;7.93;;;19.20;32.30;;;;;;5032462;28;20209;-72
2021/04/26 00:50:39;;;;;;;7.30;6.60;;;19.10;32.20;;;;;;5034043;28;20632;-72
2021/04/26 00:53:05;;;;;;;7.20;6.70;;;19.10;32.20;;;;;;5033671;28;20164;-72
2021/04/26 00:55:34;;;;;;;7.47;6.97;;;19.10;32.20;;;;;;5033653;28;20821;-71
2021/04/26 00:58:01;;;;;;;7.40;6.90;;;19.10;32.20;;;;;;5033669;28;20189;-73
2021/04/26 01:00:28;;;;;;;7.23;6.73;;;19.10;32.20;;;;;;5033584;28;20423;-73
2021/04/26 01:02:54;;;;;;;7.47;6.97;;;19.10;32.10;;;;;;5033749;28;20421;-73
2021/04/26 01:05:22;;;;;;;7.03;6.63;;;19.10;32.20;;;;;;5032272;28;20423;-72
2021/04/26 01:07:47;;;;;;;8.00;7.47;;;19.10;32.20;;;;;;5033273;28;20979;-72
2021/04/26 01:10:17;;;;;;;7.17;6.67;;;19.10;32.20;;;;;;5033524;28;20506;-73
2021/04/26 01:13:22;;;;;;;7.00;6.40;;;19.00;32.10;;;;;;5033412;28;20203;-72
2021/04/26 01:15:53;;;;;;;6.70;6.20;;;19.10;32.20;;;;;;5033002;28;20470;-71
2021/04/26 01:18:28;;;;;;;7.20;6.70;;;19.10;32.20;;;;;;5033212;28;20883;-72
2021/04/26 01:21:15;;;;;;;7.00;6.53;;;19.10;32.10;;;;;;5033412;28;20610;-73
2021/04/26 01:24:02;;;;;;;7.50;6.90;;;19.10;32.20;;;;;;5032451;28;20781;-72
2021/04/26 01:26:58;;;;;;;6.87;6.37;;;19.10;32.20;;;;;;5033135;28;20414;-72
2021/04/26 01:29:48;;;;;;;6.67;6.17;;;19.10;32.20;;;;;;5032769;28;20503;-73
2021/04/26 01:32:36;;;;;;;6.77;6.33;;;19.00;32.10;;;;;;5031972;28;20422;-73
2021/04/26 01:35:03;;;;;;;7.10;6.50;;;19.00;32.10;;;;;;5031539;28;20406;-72
2021/04/26 01:37:32;;;;;;;6.57;6.27;;;19.00;32.10;;;;;;5032784;28;20517;-72
2021/04/26 01:39:59;;;;;;;6.80;6.20;;;19.00;32.10;;;;;;5033193;28;20473;-72
2021/04/26 01:42:25;;;;;;;6.43;6.10;;;19.00;32.10;;;;;;5033297;28;20479;-72
2021/04/26 01:44:51;;;;;;;7.00;6.50;;;19.00;32.00;;;;;;5032884;28;20403;-72
2021/04/26 01:47:18;;;;;;;6.90;6.50;;;19.00;32.10;;;;;;5032660;28;20823;-72
2021/04/26 01:49:45;;;;;;;6.50;6.10;;;19.00;32.10;;;;;;5032656;28;20505;-72
2021/04/26 01:52:11;;;;;;;7.10;6.60;;;19.00;32.10;;;;;;5032630;28;20423;-72
2021/04/26 01:54:38;;;;;;;6.00;5.60;;;19.00;32.10;;;;;;5032916;28;20910;-71
2021/04/26 01:57:05;;;;;;;5.97;5.67;;;19.00;32.10;;;;;;5032512;28;20435;-71
2021/04/26 01:59:33;;;;;;;6.17;5.77;;;19.00;32.10;;;;;;5032388;28;20458;-73
2021/04/26 02:01:59;;;;;;;6.47;6.10;;;19.00;32.80;;;;;;5032483;28;20791;-73
2021/04/26 02:04:31;;;;;;;7.00;6.50;;;19.00;32.10;;;;;;5032503;28;20419;-72
2021/04/26 02:06:59;;;;;;;7.00;6.50;;;19.00;32.10;;;;;;5031972;28;20427;-73
2021/04/26 02:09:25;;;;;;;6.53;6.13;;;19.00;32.10;;;;;;5032321;28;20550;-72
2021/04/26 02:11:56;;;;;;;7.40;6.90;;;19.00;32.10;;;;;;5032445;28;20408;-72
2021/04/26 02:14:21;;;;;;;7.03;6.53;;;19.00;32.20;;;;;;5030779;28;20474;-73
2021/04/26 02:16:47;;;;;;;7.00;6.50;;;19.00;32.20;;;;;;5031960;28;20435;-73
2021/04/26 02:19:13;;;;;;;5.90;5.60;;;19.00;32.20;;;;;;5032295;28;20207;-72
2021/04/26 02:21:41;;;;;;;6.37;5.90;;;19.00;32.10;;;;;;5032116;28;20212;-72
2021/04/26 02:24:11;;;;;;;6.10;5.70;;;19.00;32.20;;;;;;5032217;28;20256;-72
2021/04/26 02:26:37;;;;;;;6.77;6.37;;;18.90;32.10;;;;;;5031842;28;20411;-72
2021/04/26 02:29:05;;;;;;;6.20;5.80;;;18.90;32.10;;;;;;5031705;28;20466;-73
2021/04/26 02:31:34;;;;;;;6.10;5.70;;;18.90;32.10;;;;;;5032203;28;20204;-72
2021/04/26 02:34:11;;;;;;;6.47;6.10;;;18.90;32.00;;;;;;5031795;28;20416;-72
2021/04/26 02:36:43;;;;;;;5.80;5.50;;;18.90;32.10;;;;;;5031590;28;20470;-72
2021/04/26 02:39:10;;;;;;;6.37;5.97;;;18.90;32.00;;;;;;5031945;28;20518;-72
2021/04/26 02:41:41;;;;;;;5.70;5.40;;;18.90;32.10;;;;;;5031793;28;20451;-72
2021/04/26 02:44:22;;;;;;;5.53;5.20;;;18.90;32.00;;;;;;5031638;28;20425;-72
2021/04/26 02:46:49;;;;;;;6.00;5.70;;;18.90;32.10;;;;;;5031662;28;20426;-72
2021/04/26 02:49:15;;;;;;;6.70;6.30;;;18.90;32.00;;;;;;5031763;28;20486;-72
2021/04/26 02:51:41;;;;;;;6.50;6.10;;;18.90;32.00;;;;;;5031666;28;20407;-71
2021/04/26 02:54:08;;;;;;;5.50;5.20;;;18.90;32.00;;;;;;5031744;28;20404;-71
2021/04/26 02:56:38;;;;;;;6.50;6.10;;;18.90;32.00;;;;;;5031541;28;20910;-72
2021/04/26 02:59:07;;;;;;;5.40;5.10;;;18.90;32.00;;;;;;5031530;28;20411;-72
2021/04/26 03:01:34;;;;;;;5.90;5.60;;;18.90;32.00;;;;;;5031754;28;20404;-72
2021/04/26 03:04:00;;;;;;;5.83;5.50;;;18.90;32.00;;;;;;5030358;28;20917;-72
2021/04/26 03:06:27;;;;;;;5.47;5.17;;;18.90;32.00;;;;;;5031129;28;20777;-72
2021/04/26 03:08:54;;;;;;;5.70;5.30;;;18.80;31.90;;;;;;5031592;28;20459;-72
2021/04/26 03:11:21;;;;;;;5.53;5.23;;;18.90;32.00;;;;;;5031632;28;20470;-72
2021/04/26 03:13:47;;;;;;;5.83;5.53;;;18.90;32.00;;;;;;5030054;28;20407;-72
2021/04/26 03:16:12;;;;;;;6.00;5.60;;;18.90;32.00;;;;;;5031483;28;20418;-72
2021/04/26 03:18:40;;;;;;;6.10;5.63;;;18.90;32.00;;;;;;5030319;28;20431;-72
2021/04/26 03:21:08;;;;;;;5.63;5.33;;;18.90;32.00;;;;;;5031456;28;20204;-72
2021/04/26 03:23:35;;;;;;;6.33;5.93;;;18.80;31.90;;;;;;5030234;28;20451;-72
2021/04/26 03:26:02;;;;;;;5.77;5.47;;;18.90;32.00;;;;;;5031491;28;20433;-72
2021/04/26 03:28:29;;;;;;;5.50;5.23;;;18.80;31.90;;;;;;5031115;28;20477;-73
2021/04/26 03:31:00;;;;;;;6.07;5.77;;;18.90;32.00;;;;;;5031598;28;20407;-72
2021/04/26 03:33:26;;;;;;;5.67;5.27;;;18.90;32.00;;;;;;5031459;28;20816;-72
2021/04/26 03:35:55;;;;;;;5.77;5.47;;;18.80;31.90;;;;;;5030994;28;20412;-72
2021/04/26 03:38:21;;;;;;;5.43;5.13;;;18.80;32.00;;;;;;5040189;28;20947;-72
2021/04/26 03:40:47;;;;;;;5.40;5.10;;;18.90;32.10;;;;;;5038598;28;20431;-72
2021/04/26 03:43:15;;;;;;;5.60;5.30;;;18.90;32.00;;;;;;5031048;28;20468;-73
2021/04/26 03:45:41;;;;;;;5.47;5.23;;;19.00;32.00;;;;;;5032192;28;20429;-72
2021/04/26 03:48:07;;;;;;;6.10;5.70;;;19.10;31.80;;;;;;5034023;28;21220;-72
2021/04/26 03:50:33;;;;;;;5.70;5.40;;;19.20;31.60;;;;;;5033400;28;20983;-72
2021/04/26 03:52:59;;;;;;;5.50;5.20;;;19.20;31.30;;;;;;5034978;28;20415;-71
2021/04/26 03:55:25;;;;;;;4.87;4.63;;;19.30;31.20;;;;;;5034773;28;20179;-72
2021/04/26 03:57:51;;;;;;;5.77;5.47;;;19.30;31.10;;;;;;5033306;28;20271;-72
2021/04/26 04:00:18;;;;;;;5.37;5.10;;;19.40;31.10;;;;;;5034973;28;20414;-72
2021/04/26 04:02:46;;;;;;;5.50;5.10;;;19.40;30.90;;;;;;5034873;28;20415;-73
2021/04/26 04:05:12;;;;;;;5.67;5.27;;;19.50;30.80;;;;;;5034221;28;20443;-72
2021/04/26 04:07:38;;;;;;;4.97;4.77;;;19.50;30.80;;;;;;5034475;28;20423;-72
2021/04/26 04:10:12;;;;;;;5.23;4.93;;;19.60;30.80;;;;;;5033390;28;20473;-72
2021/04/26 04:12:38;;;;;;;5.00;4.70;;;19.60;30.80;;;;;;5034453;28;20168;-72
2021/04/26 04:15:05;;;;;;;5.10;4.80;;;19.60;30.70;;;;;;5033707;28;21017;-73
2021/04/26 04:17:31;;;;;;;5.23;4.93;;;19.60;30.70;;;;;;5033340;28;20431;-73
2021/04/26 04:19:56;;;;;;;5.07;4.77;;;19.60;30.70;;;;;;5034302;28;20418;-73
2021/04/26 04:22:22;;;;;;;4.90;4.70;;;19.60;30.70;;;;;;5034554;28;20181;-72
2021/04/26 04:24:48;;;;;;;4.87;4.47;;;19.60;30.70;;;;;;5034429;28;20550;-71
2021/04/26 04:27:14;;;;;;;4.93;4.73;;;19.60;30.70;;;;;;5034098;28;20200;-72
2021/04/26 04:29:39;;;;;;;5.37;5.07;;;19.60;30.70;;;;;;5037240;28;20208;-71
2021/04/26 04:32:06;;;;;;;5.00;4.70;;;19.60;31.10;;;;;;5034249;28;20184;-74
2021/04/26 04:34:32;;;;;;;5.60;5.20;;;19.70;31.40;;;;;;5043817;28;20207;-73
2021/04/26 04:36:58;;;;;;;5.67;5.17;;;19.80;32.00;;;;;;5034104;28;20486;-72
2021/04/26 04:39:23;;;;;;;5.23;4.73;;;19.80;31.90;;;;;;5037090;28;20188;-71
2021/04/26 04:41:49;;;;;;;5.93;5.43;;;19.80;32.00;;;;;;5041389;28;20416;-71
2021/04/26 04:44:14;;;;;;;5.30;4.90;;;19.80;32.00;;;;;;5043689;28;20189;-70
2021/04/26 04:46:40;;;;;;;6.57;4.70;;;19.90;32.10;;;;;;5037007;28;20667;-71
2021/04/26 04:49:06;;;;;;;5.87;5.30;;;19.90;32.00;;;;;;5038654;28;20283;-71
2021/04/26 04:51:31;;;;;;;6.33;5.17;;;19.90;32.10;;;;;;5035916;28;20263;-71
2021/04/26 04:53:57;;;;;;;6.17;5.60;;;19.90;32.20;;;;;;5032558;28;20635;-71
2021/04/26 04:56:23;;;;;;;6.23;5.20;;;19.90;32.20;;;;;;5033360;28;20202;-71
2021/04/26 04:58:50;;;;;;;5.63;5.13;;;19.90;32.30;;;;;;5032983;28;20450;-72
2021/04/26 05:01:15;;;;;;;4.83;4.53;;;19.90;32.30;;;;;;5034066;28;20215;-71
2021/04/26 05:03:41;;;;;;;8.30;5.47;;;19.90;32.70;;;;;;5036865;28;20423;-71
2021/04/26 05:06:06;;;;;;;7.23;5.30;;;19.90;32.90;;;;;;5033350;28;20206;-73
2021/04/26 05:08:32;;;;;;;5.40;4.90;;;19.90;32.90;;;;;;5033267;28;20221;-72
2021/04/26 05:10:58;;;;;;;7.33;5.30;;;19.90;32.90;;;;;;5041559;28;20551;-72
2021/04/26 05:13:23;;;;;;;5.03;4.60;;;19.90;32.90;;;;;;5038793;28;20169;-72
2021/04/26 05:15:49;;;;;;;5.90;5.20;;;19.90;33.10;;;;;;5042893;28;20192;-72
2021/04/26 05:18:15;;;;;;;5.33;4.73;;;19.90;32.80;;;;;;5039717;28;20220;-72
2021/04/26 05:20:41;;;;;;;5.23;4.83;;;19.90;32.60;;;;;;5033155;28;20205;-71
2021/04/26 05:23:08;;;;;;;5.73;4.93;;;19.90;32.50;;;;;;5033302;28;20488;-71
2021/04/26 05:25:34;;;;;;;13.03;5.97;;;19.90;32.60;;;;;;5033090;28;20498;-75
2021/04/26 05:27:59;;;;;;;8.13;5.27;;;19.90;32.60;;;;;;5032756;28;20538;-71
2021/04/26 05:30:25;;;;;;;6.30;5.30;;;19.90;32.90;;;;;;5033001;28;20714;-71
2021/04/26 05:32:50;;;;;;;8.93;5.00;;;19.90;32.80;;;;;;5031875;28;20176;-70
2021/04/26 05:35:16;;;;;;;7.87;5.30;;;19.90;32.60;;;;;;5032638;28;20184;-72
2021/04/26 05:37:41;;;;;;;9.27;4.80;;;19.90;32.60;;;;;;5034898;28;20200;-71
2021/04/26 05:40:07;;;;;;;5.43;5.03;;;19.90;32.80;;;;;;5033775;28;20177;-71
2021/04/26 05:42:33;;;;;;;5.63;5.13;;;19.90;32.70;;;;;;5032962;28;20218;-70
2021/04/26 05:44:59;;;;;;;5.43;4.93;;;19.90;33.00;;;;;;5038921;28;20781;-70
2021/04/26 05:47:24;;;;;;;8.23;5.97;;;19.90;33.10;;;;;;5033286;28;20427;-71
2021/04/26 05:49:50;;;;;;;10.63;5.70;;;20.00;33.40;;;;;;5032965;28;20630;-71
2021/04/26 05:52:15;;;;;;;8.03;5.43;;;20.00;33.30;;;;;;5032865;28;20213;-71
2021/04/26 05:54:41;;;;;;;7.10;6.40;;;20.00;33.40;;;;;;5034451;28;20184;-70
2021/04/26 05:57:07;;;;;;;6.23;5.10;;;20.00;33.50;;;;;;5031116;28;20243;-70
2021/04/26 05:59:32;;;;;;;7.10;5.50;;;20.00;33.00;;;;;;5033039;28;20177;-71
2021/04/26 06:01:58;;;;;;;6.20;5.60;;;20.00;32.90;;;;;;5032743;28;20262;-70
2021/04/26 06:04:23;;;;;;;6.10;5.40;;;20.00;32.80;;;;;;5032245;28;20180;-71
2021/04/26 06:06:49;;;;;;;6.47;5.90;;;19.90;32.90;;;;;;5032269;28;20551;-71
2021/04/26 06:09:15;;;;;;;14.93;6.37;;;19.90;33.40;;;;;;5032124;28;20196;-70
2021/04/26 06:11:41;;;;;;;5.80;5.20;;;19.80;32.10;;;;;;5032198;28;20218;-72
2021/04/26 06:14:07;;;;;;;9.03;5.30;;;19.70;31.00;;;;;;5033347;28;20188;-72
2021/04/26 06:16:32;;;;;;;7.50;6.80;;;19.70;31.90;;;;;;5031830;28;20481;-72
2021/04/26 06:18:58;;;;;;;8.10;5.93;;;19.70;31.40;;;;;;5031937;28;20227;-72
2021/04/26 06:21:23;;;;;;;5.67;5.03;;;19.80;31.50;;;;;;5032272;28;20176;-73
2021/04/26 06:23:49;;;;;;;4.97;4.47;;;19.80;31.20;;;;;;5032348;28;20203;-71
2021/04/26 06:26:14;;;;;;;7.73;5.10;;;19.80;31.10;;;;;;5031825;28;20181;-72
2021/04/26 06:28:40;;;;;;;7.13;6.10;;;19.80;30.80;;;;;;5032053;28;20232;-71
2021/04/26 06:31:05;;;;;;;5.77;5.30;;;19.80;30.50;;;;;;5032022;28;20245;-73
2021/04/26 06:33:31;;;;;;;5.70;5.20;;;19.80;30.30;;;;;;5031370;28;20181;-71
2021/04/26 06:35:56;;;;;;;5.67;5.27;;;19.80;30.00;;;;;;5031916;28;20208;-70
2021/04/26 06:38:22;;;;;;;5.67;5.23;;;19.80;29.80;;;;;;5032024;28;20700;-71
2021/04/26 06:40:48;;;;;;;6.17;5.30;;;19.90;29.90;;;;;;5031521;28;20191;-70
2021/04/26 06:43:15;;;;;;;8.10;5.40;;;19.90;29.90;;;;;;5032069;28;20534;-70
2021/04/26 06:45:41;;;;;;;7.53;5.17;;;19.80;29.50;;;;;;5031619;28;20423;-70
2021/04/26 06:48:08;;;;;;;5.60;4.90;;;19.90;28.90;;;;;;5029819;28;20474;-72
2021/04/26 06:50:34;;;;;;;8.63;5.47;;;19.90;28.90;;;;;;5031789;28;20766;-71
2021/04/26 06:53:00;;;;;;;6.57;5.50;;;19.80;29.70;;;;;;5030270;28;20418;-71
2021/04/26 06:55:26;;;;;;;5.80;5.40;;;19.70;29.80;;;;;;5030021;28;20755;-71
2021/04/26 06:57:52;;;;;;;5.80;5.30;;;19.70;29.80;;;;;;5031519;28;20216;-70
2021/04/26 07:00:20;;;;;;;6.37;5.70;;;19.60;29.70;;;;;;5031836;28;20172;-70
2021/04/26 07:02:47;;;;;;;7.80;4.73;;;19.60;29.70;;;;;;5036325;28;20427;-71
2021/04/26 07:05:13;;;;;;;11.37;5.17;;;19.60;29.90;;;;;;5030145;28;20427;-71
2021/04/26 07:07:38;;;;;;;6.67;5.20;;;19.60;29.90;;;;;;5031543;28;20427;-71
2021/04/26 07:10:05;;;;;;;6.27;5.33;;;19.50;30.00;;;;;;5031544;28;20177;-70
2021/04/26 07:12:31;;;;;;;6.50;5.03;;;19.50;30.00;;;;;;5031505;28;20169;-71
2021/04/26 07:14:57;;;;;;;5.73;5.10;;;19.50;30.00;;;;;;5031655;28;20893;-71
2021/04/26 07:17:23;;;;;;;7.20;5.90;;;19.50;30.10;;;;;;5030314;28;20534;-70
2021/04/26 07:19:50;;;;;;;5.50;4.77;;;19.50;30.10;;;;;;5031437;28;20164;-71
2021/04/26 07:22:15;;;;;;;8.07;5.20;;;19.40;30.20;;;;;;5035102;28;20403;-71
2021/04/26 07:24:41;;;;;;;7.83;5.20;;;19.40;30.30;;;;;;5035124;28;21107;-71
2021/04/26 07:27:07;;;;;;;6.20;5.77;;;19.40;30.30;;;;;;5035162;28;20201;-71
2021/04/26 07:29:32;;;;;;;5.60;5.30;;;19.40;30.40;;;;;;5035320;28;20358;-70
2021/04/26 07:31:58;;;;;;;8.73;5.07;;;19.40;30.40;;;;;;5034920;28;20176;-71
2021/04/26 07:34:23;;;;;;;5.70;5.20;;;19.40;30.50;;;;;;5035238;28;20176;-70
2021/04/26 07:36:49;;;;;;;5.57;5.07;;;19.30;30.50;;;;;;5034955;28;20169;-71
2021/04/26 07:39:15;;;;;;;6.07;5.47;;;19.30;30.50;;;;;;5034934;28;20173;-70
2021/04/26 07:41:41;;;;;;;5.73;5.23;;;19.30;30.50;;;;;;5033701;28;20263;-70
2021/04/26 07:44:07;;;;;;;6.30;5.70;;;19.30;30.60;;;;;;5035130;28;20408;-71
2021/04/26 07:46:33;;;;;;;5.97;4.70;;;19.30;30.60;;;;;;5034766;28;20506;-70
2021/04/26 07:48:58;;;;;;;7.27;5.50;;;19.30;30.60;;;;;;5034873;28;20550;-70
2021/04/26 07:51:24;;;;;;;10.30;5.40;;;19.30;30.70;;;;;;5035012;28;20172;-70
2021/04/26 07:53:50;;;;;;;5.33;4.60;;;19.30;30.80;;;;;;5034908;28;20181;-70
2021/04/26 07:56:15;;;;;;;5.77;5.27;;;19.30;30.90;;;;;;5034301;28;20235;-71
2021/04/26 07:58:41;;;;;;;5.50;5.00;;;19.30;30.90;;;;;;5034146;28;20200;-71
2021/04/26 08:01:06;;;;;;;5.67;5.20;;;19.30;30.90;;;;;;5034938;28;20179;-70
2021/04/26 08:03:32;;;;;;;7.50;5.97;;;19.20;30.80;;;;;;5034523;28;20177;-70
2021/04/26 08:05:57;;;;;;;6.40;5.80;;;19.30;31.00;;;;;;5034499;28;20597;-71
2021/04/26 08:08:23;;;;;;;5.10;4.60;;;19.30;30.90;;;;;;5034473;28;20212;-70
2021/04/26 08:10:49;;;;;;;5.30;4.90;;;19.20;30.90;;;;;;5034253;28;20225;-70
2021/04/26 08:13:15;;;;;;;5.20;4.87;;;19.20;31.00;;;;;;5034747;28;20176;-71
2021/04/26 08:15:41;;;;;;;9.60;4.70;;;19.20;31.00;;;;;;5034156;28;21008;-70
2021/04/26 08:18:06;;;;;;;5.03;4.63;;;19.20;31.00;;;;;;5032848;28;20478;-70
2021/04/26 08:20:33;;;;;;;5.20;4.70;;;19.20;31.10;;;;;;5034397;28;20500;-71
2021/04/26 08:22:59;;;;;;;4.60;4.30;;;19.20;31.00;;;;;;5034416;28;20173;-70
2021/04/26 08:25:24;;;;;;;6.00;5.40;;;19.20;31.10;;;;;;5033867;28;20545;-69
2021/04/26 08:27:50;;;;;;;8.70;6.33;;;19.20;31.60;;;;;;5034168;28;20522;-69
2021/04/26 08:30:16;;;;;;;7.00;6.30;;;19.30;31.80;;;;;;5034350;28;20173;-70
2021/04/26 08:32:42;;;;;;;8.70;6.33;;;19.40;32.10;;;;;;5032447;28;20169;-69
2021/04/26 08:35:08;;;;;;;8.97;6.90;;;19.50;31.90;;;;;;5034293;28;20442;-70
2021/04/26 08:37:34;;;;;;;9.37;6.20;;;19.60;32.20;;;;;;5034286;28;20427;-70
2021/04/26 08:40:00;;;;;;;12.53;6.20;;;19.60;31.70;;;;;;5033664;28;20755;-70
2021/04/26 08:42:25;;;;;;;7.70;6.20;;;19.60;31.70;;;;;;5032672;28;20414;-70
2021/04/26 08:44:51;;;;;;;6.30;5.70;;;19.70;31.60;;;;;;5034088;28;20650;-69
2021/04/26 08:47:19;;;;;;;6.70;6.10;;;19.70;31.60;;;;;;5033522;28;20243;-69
2021/04/26 08:49:45;;;;;;;8.20;5.70;;;19.70;31.70;;;;;;5033639;28;20292;-69
2021/04/26 08:52:11;;;;;;;6.70;6.00;;;19.80;31.80;;;;;;5037746;28;20852;-69
2021/04/26 08:54:36;;;;;;;8.60;6.80;;;19.80;31.50;;;;;;5033511;28;20186;-69
2021/04/26 08:57:02;;;;;;;6.37;5.83;;;19.80;31.80;;;;;;5034624;28;20231;-69
2021/04/26 08:59:28;;;;;;;10.00;6.60;;;19.80;31.80;;;;;;5033777;28;20659;-70
2021/04/26 09:02:02;;;;;;;6.37;5.87;;;19.80;31.40;;;;;;5033396;28;20611;-70
2021/04/26 09:04:28;;;;;;;18.77;8.10;;;19.80;31.30;;;;;;5034611;28;20207;-70
2021/04/26 09:07:00;;;;;;;9.73;6.50;;;19.80;31.50;;;;;;5035206;28;20492;-69
2021/04/26 09:09:36;;;;;;;8.97;6.40;;;19.80;31.70;;;;;;5033185;28;21248;-69
2021/04/26 09:12:04;;;;;;;7.37;6.10;;;19.90;31.30;;;;;;5034998;28;20426;-69
2021/04/26 09:14:47;;;;;;;6.97;6.30;;;19.90;31.30;;;;;;5034006;28;20789;-68
2021/04/26 09:17:34;;;;;;;6.23;5.73;;;19.90;31.30;;;;;;5031985;28;20434;-69
2021/04/26 09:20:22;;;;;;;7.47;6.20;;;19.90;31.60;;;;;;5037151;28;20898;-69
2021/04/26 09:22:53;;;;;;;10.23;6.30;;;19.90;31.70;;;;;;5039858;28;20572;-69
2021/04/26 09:25:33;;;;;;;6.97;6.33;;;19.90;31.20;;;;;;5037764;28;20455;-70
2021/04/26 09:28:13;;;;;;;8.77;6.60;;;19.90;31.20;;;;;;5040299;28;21025;-69
2021/04/26 09:30:43;;;;;;;7.43;6.13;;;19.90;31.30;;;;;;5032932;28;20499;-69
2021/04/26 09:33:29;;;;;;;14.43;6.77;;;20.00;31.30;;;;;;5032950;28;20786;-70
2021/04/26 09:36:03;;;;;;;8.60;6.13;;;20.00;31.40;;;;;;5042914;28;20530;-69
2021/04/26 09:38:35;;;;;;;6.20;5.70;;;20.00;31.60;;;;;;5048086;28;20816;-70
2021/04/26 09:41:06;;;;;;;11.57;7.30;;;20.00;31.40;;;;;;5038519;28;20445;-70
2021/04/26 09:43:32;;;;;;;6.70;6.10;;;20.00;31.70;;;;;;5028246;28;20500;-70
2021/04/26 09:45:58;;;;;;;6.30;5.67;;;20.00;31.70;;;;;;5033025;28;20415;-70
2021/04/26 09:48:26;;;;;;;6.10;5.57;;;20.00;31.50;;;;;;5033159;28;20235;-70
2021/04/26 09:51:00;;;;;;;6.93;6.20;;;20.00;31.60;;;;;;5033294;28;20172;-70
2021/04/26 09:53:39;;;;;;;6.30;5.70;;;20.00;31.70;;;;;;5033649;28;20400;-70
2021/04/26 09:56:15;;;;;;;6.97;5.90;;;20.00;31.50;;;;;;5037355;28;20461;-70
2021/04/26 09:58:44;;;;;;;6.77;5.77;;;20.10;31.60;;;;;;5032833;28;20912;-70
2021/04/26 10:01:09;;;;;;;7.37;6.50;;;20.10;31.60;;;;;;5032386;28;20510;-70
2021/04/26 10:03:35;;;;;;;6.63;6.03;;;20.10;31.60;;;;;;5032369;28;20539;-69
2021/04/26 10:06:01;;;;;;;6.73;6.10;;;20.10;31.90;;;;;;5032354;28;20243;-70
2021/04/26 10:08:27;;;;;;;7.03;6.47;;;20.10;31.60;;;;;;5032048;28;20208;-70
2021/04/26 10:10:53;;;;;;;6.30;5.80;;;20.10;31.70;;;;;;5032416;28;20635;-70
2021/04/26 10:13:21;;;;;;;6.40;5.83;;;20.10;31.90;;;;;;5032429;28;20465;-69
2021/04/26 10:15:56;;;;;;;7.13;6.43;;;20.10;31.80;;;;;;5031576;28;20454;-70
2021/04/26 10:18:30;;;;;;;6.50;5.80;;;20.10;31.80;;;;;;5032183;28;20454;-69
2021/04/26 10:20:55;;;;;;;6.80;6.10;;;20.10;31.80;;;;;;5032103;28;20942;-69
2021/04/26 10:23:33;;;;;;;6.83;6.10;;;20.10;31.80;;;;;;5032071;28;20419;-70
2021/04/26 10:25:58;;;;;;;6.00;5.50;;;20.10;31.80;;;;;;5031963;28;20710;-70
2021/04/26 10:28:35;;;;;;;6.97;6.27;;;20.10;31.80;;;;;;5031788;28;20559;-69
2021/04/26 10:31:08;;;;;;;9.47;6.77;;;20.10;31.80;;;;;;5032012;28;20176;-70
2021/04/26 10:33:55;;;;;;;6.80;6.30;;;20.10;31.70;;;;;;5031924;28;20407;-70
2021/04/26 10:36:54;;;;;;;7.67;6.70;;;20.10;31.90;;;;;;5031946;28;20427;-71
2021/04/26 10:39:21;;;;;;;6.30;5.70;;;20.20;31.90;;;;;;5032011;28;20498;-70
2021/04/26 10:41:59;;;;;;;6.50;5.83;;;20.20;31.90;;;;;;5032056;28;20418;-69
2021/04/26 10:44:40;;;;;;;6.20;5.63;;;20.20;32.00;;;;;;5031476;28;20407;-70
2021/04/26 10:47:15;;;;;;;6.40;5.90;;;20.20;31.90;;;;;;5031575;28;20438;-69
2021/04/26 10:49:42;;;;;;;6.40;5.80;;;20.20;32.00;;;;;;5032158;28;20822;-70
2021/04/26 10:52:29;;;;;;;9.53;6.67;;;20.20;32.00;;;;;;5031665;28;20491;-70
2021/04/26 10:54:59;;;;;;;8.40;6.60;;;20.20;32.50;;;;;;5031199;28;20396;-70
2021/04/26 10:57:45;;;;;;;9.83;7.00;;;20.20;31.90;;;;;;5030346;28;20431;-69
2021/04/26 11:00:20;;;;;;;9.23;7.00;;;20.20;31.90;;;;;;5031426;28;20403;-70
2021/04/26 11:02:47;;;;;;;11.23;6.80;;;20.20;32.10;;;;;;5032012;28;20411;-69
2021/04/26 11:05:19;;;;;;;8.70;7.17;;;20.20;31.90;;;;;;5031347;28;20539;-69
2021/04/26 11:07:50;;;;;;;8.77;6.27;;;20.20;32.00;;;;;;5031388;28;21119;-69
2021/04/26 11:10:48;;;;;;;9.17;6.90;;;20.20;32.00;;;;;;5031574;28;20404;-69
2021/04/26 11:13:35;;;;;;;7.83;7.03;;;20.20;32.10;;;;;;5031769;28;20423;-68
2021/04/26 11:16:15;;;;;;;7.30;6.20;;;20.20;32.10;;;;;;5031529;28;20465;-70
2021/04/26 11:19:00;;;;;;;10.27;6.40;;;20.20;32.10;;;;;;5031430;28;20530;-69
2021/04/26 11:21:44;;;;;;;15.60;7.63;;;20.20;32.10;;;;;;5031460;28;20472;-69
2021/04/26 11:24:11;;;;;;;11.67;7.80;;;20.20;32.10;;;;;;5031544;28;20406;-69
2021/04/26 11:26:37;;;;;;;9.97;8.37;;;20.20;32.10;;;;;;5031102;28;20541;-69
2021/04/26 11:29:08;;;;;;;8.57;7.00;;;20.20;32.20;;;;;;5031103;28;20557;-69
2021/04/26 11:31:40;;;;;;;10.87;7.40;;;20.20;32.20;;;;;;5031613;28;20162;-69
2021/04/26 11:34:10;;;;;;;8.23;7.40;;;20.20;32.20;;;;;;5031571;28;20407;-69
2021/04/26 11:36:39;;;;;;;15.60;8.17;;;20.20;32.30;;;;;;5030895;28;20404;-69
2021/04/26 11:39:07;;;;;;;12.70;8.17;;;20.20;32.40;;;;;;5031173;28;20419;-69
2021/04/26 11:41:43;;;;;;;8.57;7.40;;;20.20;32.30;;;;;;5031310;28;20917;-69
2021/04/26 11:44:09;;;;;;;8.77;7.73;;;20.20;33.10;;;;;;5031210;28;20502;-69
2021/04/26 11:46:35;;;;;;;11.17;7.90;;;20.20;32.40;;;;;;5031225;28;20811;-70
2021/04/26 11:49:20;;;;;;;10.17;8.50;;;20.20;32.40;;;;;;5031172;28;20263;-69
2021/04/26 11:51:49;;;;;;;9.10;7.70;;;20.20;32.50;;;;;;5030884;28;20172;-70
2021/04/26 11:54:21;;;;;;;10.97;8.77;;;20.20;32.40;;;;;;5031402;28;20777;-70
2021/04/26 11:57:05;;;;;;;9.90;8.00;;;20.20;33.00;;;;;;5031135;28;20494;-69
2021/04/26 11:59:31;;;;;;;16.50;9.10;;;20.20;32.70;;;;;;5031116;28;20419;-70
2021/04/26 12:01:57;;;;;;;13.17;8.23;;;20.20;33.20;;;;;;5031258;28;20408;-70
2021/04/26 12:04:37;;;;;;;11.33;8.00;;;20.10;33.20;;;;;;5030591;28;20407;-69
2021/04/26 12:07:04;;;;;;;12.30;9.27;;;20.10;33.10;;;;;;5030736;28;20426;-70
2021/04/26 12:09:30;;;;;;;11.73;8.67;;;20.10;33.00;;;;;;5034679;28;20461;-70
2021/04/26 12:12:01;;;;;;;17.30;8.70;;;20.10;32.90;;;;;;5034904;28;20905;-69
2021/04/26 12:14:27;;;;;;;13.63;8.90;;;20.10;33.00;;;;;;5034332;28;20193;-70
2021/04/26 12:16:52;;;;;;;10.50;8.30;;;20.10;33.10;;;;;;5032701;28;20809;-69
2021/04/26 12:19:32;;;;;;;15.80;8.60;;;20.10;33.10;;;;;;5034472;28;20248;-69
2021/04/26 12:21:57;;;;;;;13.10;8.67;;;20.10;33.50;;;;;;5034272;28;20342;-71
2021/04/26 12:24:23;;;;;;;16.87;9.30;;;20.10;33.10;;;;;;5034444;28;20949;-70
2021/04/26 12:26:49;;;;;;;17.93;9.57;;;20.10;33.60;;;;;;5034297;28;20211;-70
2021/04/26 12:29:29;;;;;;;12.73;8.37;;;20.10;33.50;;;;;;5033812;28;20568;-69
2021/04/26 12:32:12;;;;;;;10.43;7.83;;;20.10;33.40;;;;;;5034376;28;20226;-70
2021/04/26 12:34:58;;;;;;;14.30;8.60;;;20.10;33.30;;;;;;5034374;28;20408;-69
2021/04/26 12:37:31;;;;;;;10.43;7.83;;;20.10;33.10;;;;;;5033511;28;20427;-70
2021/04/26 12:40:19;;;;;;;11.63;8.83;;;20.10;33.00;;;;;;5034353;28;20457;-70
2021/04/26 12:42:48;;;;;;;13.50;7.90;;;20.10;32.80;;;;;;5033991;28;20494;-70
2021/04/26 12:45:21;;;;;;;11.77;8.73;;;20.10;32.80;;;;;;5033810;28;20824;-70
2021/04/26 12:47:59;;;;;;;11.40;8.33;;;20.10;32.90;;;;;;5033912;28;20463;-69
2021/04/26 12:50:46;;;;;;;14.53;7.90;;;20.10;33.20;;;;;;5033683;28;20414;-70
2021/04/26 12:53:16;;;;;;;11.73;7.90;;;20.10;33.00;;;;;;5034022;28;20444;-70
2021/04/26 12:55:56;;;;;;;14.00;8.10;;;20.10;33.10;;;;;;5032431;28;20419;-69